Terminal Aerodrome Forecast
Issued by NWS Pocatello, ID

Home | Current Version | Previous Version | Text Only | Print | Product List | Glossary On
Versions: 1 2 3 4 5 6 7 8 9 10 11 12 13 14 15 16 17 18 19
000
FTUS45 KPIH 240729 AAB
TAFPIH
TAF AMD
KPIH 240729Z 2407/2506 VRB06KT 5SM BR SCT002 BKN015
      TEMPO 2407/2411 1SM BR BKN002
     FM241100 VRB06KT P6SM VCSH SCT020 OVC035
     FM241700 28010KT P6SM -SHRA VCTS OVC060CB
     FM250300 VRB06KT P6SM VCSH OVC080=

USA.gov is the U.S. government's official web portal to all federal, state and local government web resources and services.